Time;durP1;ratioP1;P1;durP2;ratioP2;P2;SDS_P1;SDS_P2;PMS_P1;PMS_P2;Temp;Humidity;BMP_temperature;BMP_pressure;BME280_temperature;BME280_humidity;BME280_pressure;Samples;Min_cycle;Max_cycle;Signal;HPM_P1;HPM_P2
2022/09/30 00:01:28;;;;;;;4.97;4.57;;;11.50;99.90;;;;;;4998873;28;20666;-88
2022/09/30 00:03:56;;;;;;;4.93;4.53;;;11.50;99.90;;;;;;5004793;28;20214;-88
2022/09/30 00:06:23;;;;;;;4.43;4.13;;;11.50;99.90;;;;;;5008359;28;20206;-88
2022/09/30 00:08:49;;;;;;;4.90;4.40;;;11.50;99.90;;;;;;5012560;28;20255;-89
2022/09/30 00:11:19;;;;;;;4.47;4.17;;;11.60;99.90;;;;;;4999827;28;20278;-89
2022/09/30 00:13:47;;;;;;;4.20;3.80;;;11.60;99.90;;;;;;4993078;28;20208;-90
2022/09/30 00:16:14;;;;;;;3.93;3.63;;;11.60;99.90;;;;;;4993790;28;20243;-88
2022/09/30 00:18:41;;;;;;;4.47;4.07;;;11.60;99.90;;;;;;4996186;28;20723;-89
2022/09/30 00:21:07;;;;;;;5.07;4.67;;;11.70;99.90;;;;;;5002045;28;20256;-90
2022/09/30 00:23:35;;;;;;;5.13;4.70;;;11.70;99.90;;;;;;4997790;28;20699;-90
2022/09/30 00:26:03;;;;;;;4.90;4.50;;;11.60;99.90;;;;;;4991993;28;20254;-88
2022/09/30 00:28:30;;;;;;;5.23;4.73;;;11.50;99.90;;;;;;5000132;28;20246;-87
2022/09/30 00:31:04;;;;;;;5.10;4.70;;;11.40;99.90;;;;;;5000781;28;20222;-87
2022/09/30 00:33:30;;;;;;;5.03;4.63;;;11.40;99.90;;;;;;4990035;28;20210;-87
2022/09/30 00:35:56;;;;;;;5.10;4.73;;;11.40;99.90;;;;;;5004436;28;20298;-88
2022/09/30 00:38:22;;;;;;;4.97;4.57;;;11.30;99.90;;;;;;5002730;28;20203;-87
2022/09/30 00:40:48;;;;;;;5.27;4.87;;;11.40;99.90;;;;;;5001396;28;20247;-87
2022/09/30 00:43:36;;;;;;;5.47;5.07;;;11.50;99.90;;;;;;5005930;28;20212;-90
2022/09/30 00:46:01;;;;;;;5.27;4.80;;;11.50;99.90;;;;;;5001731;28;20256;-88
2022/09/30 00:48:35;;;;;;;5.00;4.60;;;11.40;99.90;;;;;;4987284;28;20651;-87
2022/09/30 00:51:03;;;;;;;4.87;4.47;;;11.40;99.90;;;;;;4990537;28;20222;-88
2022/09/30 00:53:30;;;;;;;5.03;4.63;;;11.50;99.90;;;;;;4996229;28;20223;-89
2022/09/30 00:56:19;;;;;;;5.47;5.07;;;11.50;99.90;;;;;;5000975;28;20212;-88
2022/09/30 00:58:53;;;;;;;4.50;4.20;;;11.60;99.90;;;;;;4993248;28;20269;-88
2022/09/30 01:01:20;;;;;;;5.07;4.67;;;11.50;99.90;;;;;;4995518;28;20179;-88
2022/09/30 01:03:51;;;;;;;4.80;4.40;;;11.60;99.90;;;;;;5003172;28;20670;-89
2022/09/30 01:06:20;;;;;;;4.53;4.23;;;11.70;99.90;;;;;;4993575;28;20193;-88
2022/09/30 01:08:47;;;;;;;4.80;4.40;;;11.60;99.90;;;;;;4995806;28;20186;-88
2022/09/30 01:11:13;;;;;;;5.60;5.10;;;11.70;99.90;;;;;;4997107;28;20193;-87
2022/09/30 01:13:41;;;;;;;4.90;4.50;;;11.60;99.90;;;;;;4997523;28;20726;-87
2022/09/30 01:16:15;;;;;;;4.77;4.37;;;11.40;99.90;;;;;;5001605;28;20219;-88
2022/09/30 01:19:18;;;;;;;5.53;4.50;;;11.50;99.90;;;;;;5002179;28;20242;-88
2022/09/30 01:22:07;;;;;;;4.80;4.40;;;11.60;99.90;;;;;;5012471;28;20192;-89
2022/09/30 01:24:51;;;;;;;4.93;4.50;;;11.60;99.90;;;;;;4976435;28;20191;-88
2022/09/30 01:27:49;;;;;;;5.07;4.67;;;11.50;99.90;;;;;;4986505;28;20186;-88
2022/09/30 01:30:19;;;;;;;4.50;4.13;;;11.30;99.90;;;;;;4994951;28;20207;-88
2022/09/30 01:33:07;;;;;;;4.60;4.20;;;11.30;99.90;;;;;;4995277;28;20203;-88
2022/09/30 01:35:57;;;;;;;4.70;4.40;;;11.40;99.90;;;;;;4989591;28;20233;-88
2022/09/30 01:38:47;;;;;;;5.47;4.93;;;11.40;99.90;;;;;;5003531;28;20183;-88
2022/09/30 01:41:27;;;;;;;4.97;4.57;;;11.30;99.90;;;;;;4983105;28;20271;-88
2022/09/30 01:44:19;;;;;;;5.60;4.87;;;11.40;99.90;;;;;;4985520;28;20202;-89
2022/09/30 01:46:53;;;;;;;6.17;4.63;;;11.40;99.90;;;;;;4994729;28;20192;-89
2022/09/30 01:49:38;;;;;;;4.90;4.47;;;11.40;99.90;;;;;;4996682;28;20872;-89
2022/09/30 01:52:14;;;;;;;4.70;4.40;;;11.40;99.90;;;;;;4994619;28;20193;-88
2022/09/30 01:55:05;;;;;;;4.27;3.90;;;11.40;99.90;;;;;;5001621;28;20193;-89
2022/09/30 01:57:57;;;;;;;4.67;4.27;;;11.40;99.90;;;;;;5000159;28;20190;-88
2022/09/30 02:00:24;;;;;;;5.40;4.90;;;11.50;99.90;;;;;;4991490;28;20295;-88
2022/09/30 02:02:52;;;;;;;5.67;5.17;;;11.40;99.90;;;;;;4988549;28;20198;-89
2022/09/30 02:05:39;;;;;;;5.37;4.87;;;11.40;99.90;;;;;;4995491;28;20246;-88
2022/09/30 02:08:48;;;;;;;5.23;4.83;;;11.20;99.90;;;;;;5013421;28;20193;-88
2022/09/30 02:11:35;;;;;;;4.77;4.37;;;11.20;99.90;;;;;;4979198;28;20199;-88
2022/09/30 02:14:13;;;;;;;5.63;5.13;;;11.30;99.90;;;;;;4995497;28;20195;-90
2022/09/30 02:16:54;;;;;;;5.70;5.23;;;11.30;99.90;;;;;;5025030;28;20239;-90
2022/09/30 02:19:35;;;;;;;5.80;5.20;;;11.40;99.90;;;;;;5013147;28;20195;-90
2022/09/30 02:22:16;;;;;;;6.37;5.83;;;11.40;99.90;;;;;;5013009;28;20663;-88
2022/09/30 02:24:44;;;;;;;5.90;5.40;;;11.20;99.90;;;;;;4991654;28;20671;-88
2022/09/30 02:27:19;;;;;;;6.40;5.90;;;11.20;99.90;;;;;;5003265;28;20224;-89
2022/09/30 02:29:50;;;;;;;6.50;6.00;;;11.20;99.90;;;;;;5000309;28;20205;-88
2022/09/30 02:32:45;;;;;;;6.53;5.93;;;11.20;99.90;;;;;;5006835;28;20210;-89
2022/09/30 02:35:18;;;;;;;6.53;5.73;;;11.20;99.90;;;;;;4997719;28;20202;-89
2022/09/30 02:37:49;;;;;;;5.40;5.00;;;11.10;99.90;;;;;;4996163;28;20220;-88
2022/09/30 02:40:58;;;;;;;5.93;5.37;;;11.10;99.90;;;;;;4995271;28;20245;-88
2022/09/30 02:43:25;;;;;;;5.13;4.73;;;11.10;99.90;;;;;;4986898;28;20214;-88
2022/09/30 02:45:58;;;;;;;6.40;5.80;;;11.30;99.90;;;;;;4999988;28;20719;-90
2022/09/30 02:48:47;;;;;;;6.60;6.10;;;11.20;99.90;;;;;;4998392;28;20221;-89
2022/09/30 02:51:24;;;;;;;5.30;4.80;;;11.20;99.90;;;;;;5010990;28;20221;-89
2022/09/30 02:53:55;;;;;;;5.67;5.17;;;11.30;99.90;;;;;;5007241;28;20242;-89
2022/09/30 02:56:26;;;;;;;6.20;5.57;;;11.30;99.90;;;;;;5018094;28;20250;-88
2022/09/30 02:58:55;;;;;;;6.20;5.60;;;11.40;99.90;;;;;;5006897;28;20182;-88
2022/09/30 03:01:21;;;;;;;5.60;5.10;;;11.50;99.90;;;;;;4997915;28;20222;-88
2022/09/30 03:04:02;;;;;;;5.83;5.43;;;11.50;99.90;;;;;;4995201;28;20192;-88
2022/09/30 03:06:28;;;;;;;6.83;6.13;;;11.50;99.90;;;;;;5006230;28;20190;-89
2022/09/30 03:08:54;;;;;;;8.37;6.83;;;11.40;99.90;;;;;;5006230;28;20217;-89
2022/09/30 03:11:23;;;;;;;5.73;5.27;;;11.40;99.90;;;;;;4992338;28;20785;-88
2022/09/30 03:14:13;;;;;;;7.13;5.90;;;11.30;99.90;;;;;;4997997;28;20194;-89
2022/09/30 03:16:57;;;;;;;6.17;5.67;;;11.40;99.90;;;;;;4993900;28;20225;-88
2022/09/30 03:19:41;;;;;;;6.20;5.70;;;11.40;99.90;;;;;;4990631;28;20203;-88
2022/09/30 03:22:41;;;;;;;6.07;5.63;;;11.40;99.90;;;;;;5001410;28;20192;-88
2022/09/30 03:25:48;;;;;;;6.23;5.70;;;11.40;99.90;;;;;;5001062;28;20191;-88
2022/09/30 03:28:28;;;;;;;6.73;6.13;;;11.50;99.90;;;;;;5001927;28;20205;-88
2022/09/30 03:31:06;;;;;;;5.87;5.37;;;11.50;99.90;;;;;;4998438;28;20586;-89
2022/09/30 03:33:47;;;;;;;5.83;5.33;;;11.50;99.90;;;;;;4998779;28;20219;-89
2022/09/30 03:37:01;;;;;;;6.30;5.57;;;11.40;99.90;;;;;;4996990;28;20202;-88
2022/09/30 03:39:50;;;;;;;5.80;5.20;;;11.40;99.90;;;;;;4996318;28;20297;-88
2022/09/30 03:42:25;;;;;;;5.87;5.40;;;11.40;99.90;;;;;;5000270;28;20202;-89
2022/09/30 03:45:04;;;;;;;5.97;5.47;;;11.40;99.90;;;;;;4993167;28;20195;-88
2022/09/30 03:47:33;;;;;;;6.53;5.90;;;11.40;99.90;;;;;;4993020;28;20200;-89
2022/09/30 03:50:04;;;;;;;6.30;5.80;;;11.20;99.90;;;;;;4993654;28;20207;-89
2022/09/30 03:52:31;;;;;;;5.93;5.43;;;11.10;99.90;;;;;;4997398;28;20190;-89
2022/09/30 03:54:59;;;;;;;6.20;5.60;;;11.00;99.90;;;;;;5004006;28;20228;-89
2022/09/30 03:57:28;;;;;;;5.80;5.30;;;11.00;99.90;;;;;;4998216;28;20688;-89
2022/09/30 03:59:58;;;;;;;5.93;5.40;;;11.10;99.90;;;;;;4990316;28;20690;-89
2022/09/30 04:02:25;;;;;;;5.87;5.37;;;11.20;99.90;;;;;;5009810;28;20190;-90
2022/09/30 04:04:51;;;;;;;6.97;6.37;;;11.10;99.90;;;;;;4998145;28;20252;-90
2022/09/30 04:07:18;;;;;;;6.10;5.50;;;11.20;99.90;;;;;;4999328;28;20240;-89
2022/09/30 04:09:44;;;;;;;5.17;4.77;;;11.10;99.90;;;;;;5003650;28;20214;-89
2022/09/30 04:12:10;;;;;;;5.17;4.80;;;11.10;99.90;;;;;;5000511;28;20197;-89
2022/09/30 04:14:36;;;;;;;5.27;4.87;;;11.10;99.90;;;;;;5007111;28;20701;-90
2022/09/30 04:17:03;;;;;;;5.63;5.13;;;11.10;99.90;;;;;;4996242;28;20415;-89
2022/09/30 04:19:29;;;;;;;5.53;5.10;;;11.20;99.90;;;;;;5001886;28;20245;-89
2022/09/30 04:21:55;;;;;;;6.40;5.90;;;11.10;99.90;;;;;;5016671;28;20197;-89
2022/09/30 04:24:23;;;;;;;5.90;5.40;;;11.00;99.90;;;;;;5004957;28;20879;-89
2022/09/30 04:26:49;;;;;;;7.40;6.90;;;10.90;99.90;;;;;;5004811;28;20193;-89
2022/09/30 04:29:15;;;;;;;6.37;5.87;;;10.80;99.90;;;;;;4988516;28;20221;-89
2022/09/30 04:31:41;;;;;;;5.67;5.27;;;10.80;99.90;;;;;;5000267;28;20214;-89
2022/09/30 04:34:09;;;;;;;5.70;5.20;;;10.80;99.90;;;;;;5002553;28;20198;-89
2022/09/30 04:36:35;;;;;;;6.93;6.33;;;11.00;99.90;;;;;;5011695;28;20222;-89
2022/09/30 04:39:00;;;;;;;7.60;7.00;;;11.10;99.90;;;;;;5001478;28;20254;-89
2022/09/30 04:41:26;;;;;;;6.37;5.87;;;11.10;99.90;;;;;;4989453;28;20203;-89
2022/09/30 04:43:52;;;;;;;6.43;5.93;;;11.10;99.90;;;;;;4985755;28;20690;-89
2022/09/30 04:46:21;;;;;;;6.23;5.73;;;11.00;99.90;;;;;;4979663;28;20229;-89
2022/09/30 04:48:47;;;;;;;6.90;6.33;;;10.90;99.90;;;;;;4986431;28;20186;-89
2022/09/30 04:51:20;;;;;;;7.57;6.87;;;10.80;99.90;;;;;;5008115;28;20202;-89
2022/09/30 04:53:47;;;;;;;6.43;5.93;;;10.80;99.90;;;;;;4995909;28;20284;-90
2022/09/30 04:56:15;;;;;;;7.37;6.40;;;10.60;99.90;;;;;;4995196;28;20216;-89
2022/09/30 04:58:41;;;;;;;7.37;6.67;;;10.40;99.90;;;;;;4993463;28;20197;-89
2022/09/30 05:01:16;;;;;;;7.33;6.83;;;10.30;99.90;;;;;;4995342;28;20250;-89
2022/09/30 05:03:42;;;;;;;7.70;7.00;;;10.20;99.90;;;;;;4993747;28;20183;-89
2022/09/30 05:06:09;;;;;;;7.53;6.83;;;10.20;99.90;;;;;;4995090;28;20191;-89
2022/09/30 05:08:35;;;;;;;7.27;6.67;;;10.20;99.90;;;;;;5004967;28;20196;-89
2022/09/30 05:11:09;;;;;;;7.77;7.07;;;10.30;99.90;;;;;;5005109;28;20287;-89
2022/09/30 05:13:37;;;;;;;8.90;8.20;;;10.50;99.90;;;;;;4997128;28;20622;-90
2022/09/30 05:16:04;;;;;;;8.20;7.50;;;10.50;99.90;;;;;;4988448;28;20721;-89
2022/09/30 05:18:30;;;;;;;8.13;7.47;;;10.60;99.90;;;;;;4994965;28;20565;-89
2022/09/30 05:20:57;;;;;;;11.83;10.63;;;10.70;99.90;;;;;;4996570;28;20217;-89
2022/09/30 05:23:24;;;;;;;10.63;9.63;;;10.70;99.90;;;;;;4997488;28;20219;-89
2022/09/30 05:25:50;;;;;;;13.67;12.43;;;10.70;99.90;;;;;;4999417;28;20198;-89
2022/09/30 05:28:17;;;;;;;12.17;11.03;;;10.80;99.90;;;;;;4991326;28;20190;-89
2022/09/30 05:30:44;;;;;;;9.03;7.77;;;10.80;99.90;;;;;;5003856;28;20212;-89
2022/09/30 05:33:10;;;;;;;9.97;8.97;;;10.60;99.90;;;;;;4987020;28;20212;-89
2022/09/30 05:35:36;;;;;;;9.40;8.60;;;10.50;99.90;;;;;;4994640;28;20707;-90
2022/09/30 05:38:03;;;;;;;8.80;8.10;;;10.60;99.90;;;;;;5006764;28;20192;-90
2022/09/30 05:40:29;;;;;;;9.93;8.90;;;10.70;99.90;;;;;;5009494;28;20577;-89
2022/09/30 05:42:59;;;;;;;10.37;9.47;;;10.60;99.90;;;;;;5009911;28;20260;-89
2022/09/30 05:45:25;;;;;;;10.50;9.67;;;10.70;99.90;;;;;;4988531;28;20209;-89
2022/09/30 05:47:54;;;;;;;11.03;10.13;;;10.70;99.90;;;;;;4995962;28;20201;-90
2022/09/30 05:50:21;;;;;;;16.67;15.17;;;10.70;99.90;;;;;;4993181;28;20209;-89
2022/09/30 05:52:48;;;;;;;14.77;13.47;;;10.70;99.90;;;;;;4992118;28;20188;-90
2022/09/30 05:55:15;;;;;;;11.03;9.93;;;10.70;99.90;;;;;;4986074;28;20213;-89
2022/09/30 05:57:41;;;;;;;10.37;9.37;;;10.60;99.90;;;;;;4996009;28;20217;-89
2022/09/30 06:00:08;;;;;;;8.70;7.90;;;10.60;99.90;;;;;;4996837;28;20216;-89
2022/09/30 06:02:37;;;;;;;9.37;8.47;;;10.70;99.90;;;;;;5008499;28;20193;-90
2022/09/30 06:05:06;;;;;;;11.73;10.10;;;10.70;99.90;;;;;;5010663;28;20320;-89
2022/09/30 06:07:33;;;;;;;11.50;10.47;;;10.80;99.90;;;;;;4991591;28;20189;-90
2022/09/30 06:09:59;;;;;;;11.90;10.53;;;10.90;99.90;;;;;;4993309;28;20236;-90
2022/09/30 06:12:27;;;;;;;10.07;9.10;;;11.00;99.90;;;;;;4984999;28;20200;-90
2022/09/30 06:14:53;;;;;;;9.17;8.27;;;11.00;99.90;;;;;;5005260;28;20328;-89
2022/09/30 06:17:19;;;;;;;10.23;9.23;;;10.90;99.90;;;;;;5000872;28;20637;-89
2022/09/30 06:19:45;;;;;;;9.50;8.33;;;10.90;99.90;;;;;;4997958;28;20202;-89
2022/09/30 06:22:11;;;;;;;8.80;8.00;;;10.90;99.90;;;;;;5008258;28;20197;-89
2022/09/30 06:24:36;;;;;;;8.83;8.13;;;10.90;99.90;;;;;;5002119;28;20230;-90
2022/09/30 06:27:02;;;;;;;9.23;8.33;;;11.00;99.90;;;;;;5010712;28;20197;-89
2022/09/30 06:29:28;;;;;;;8.27;7.47;;;11.00;99.90;;;;;;5034868;28;20213;-89
2022/09/30 06:31:54;;;;;;;7.87;7.17;;;11.00;99.90;;;;;;5024551;28;20209;-89
2022/09/30 06:34:19;;;;;;;9.87;8.97;;;11.00;99.90;;;;;;5025862;28;20194;-89
2022/09/30 06:36:45;;;;;;;9.33;8.53;;;10.90;99.90;;;;;;5015675;28;20300;-90
2022/09/30 06:39:11;;;;;;;11.40;10.37;;;10.90;99.90;;;;;;5011023;28;20212;-88
2022/09/30 06:41:42;;;;;;;11.07;10.07;;;10.80;99.90;;;;;;5003451;28;20200;-88
2022/09/30 06:44:09;;;;;;;14.00;12.60;;;10.90;99.90;;;;;;4996802;28;20189;-88
2022/09/30 06:46:35;;;;;;;12.03;10.73;;;10.90;99.90;;;;;;4989490;28;20271;-89
2022/09/30 06:49:00;;;;;;;10.60;9.60;;;10.90;99.90;;;;;;4994639;28;20800;-88
2022/09/30 06:51:31;;;;;;;10.50;9.23;;;10.90;99.90;;;;;;5003372;28;20220;-88
2022/09/30 06:53:57;;;;;;;9.33;8.43;;;10.80;99.90;;;;;;5007734;28;20743;-88
2022/09/30 06:56:22;;;;;;;10.20;9.20;;;10.90;99.90;;;;;;5006730;28;20224;-88
2022/09/30 06:58:48;;;;;;;11.13;10.07;;;11.10;99.90;;;;;;4991949;28;20279;-89
2022/09/30 07:01:14;;;;;;;10.53;9.53;;;11.10;99.90;;;;;;5007751;28;20270;-88
2022/09/30 07:03:43;;;;;;;10.80;9.80;;;11.20;99.90;;;;;;4990521;28;20193;-88
2022/09/30 07:06:09;;;;;;;11.73;10.73;;;11.30;99.90;;;;;;4992100;28;20228;-88
2022/09/30 07:08:37;;;;;;;12.67;11.57;;;11.20;99.90;;;;;;5002192;28;20632;-88
2022/09/30 07:11:15;;;;;;;13.30;12.00;;;11.30;99.90;;;;;;5002454;28;20209;-88
2022/09/30 07:13:44;;;;;;;22.90;14.57;;;11.30;99.90;;;;;;5009215;28;20200;-88
2022/09/30 07:16:12;;;;;;;15.23;13.90;;;11.50;99.90;;;;;;5007388;28;20271;-88
2022/09/30 07:18:38;;;;;;;13.97;12.60;;;11.40;99.90;;;;;;4992793;28;20198;-89
2022/09/30 07:21:04;;;;;;;16.33;13.63;;;11.60;99.90;;;;;;4994229;28;20820;-88
2022/09/30 07:23:30;;;;;;;15.13;13.73;;;11.60;99.90;;;;;;5000710;28;20705;-88
2022/09/30 07:26:03;;;;;;;14.10;12.80;;;11.60;99.90;;;;;;5001067;28;20209;-88
2022/09/30 07:28:33;;;;;;;15.43;13.33;;;11.70;99.90;;;;;;5004133;28;20201;-88
2022/09/30 07:31:10;;;;;;;14.70;13.30;;;11.80;99.90;;;;;;5004410;28;20221;-88
2022/09/30 07:33:37;;;;;;;14.03;12.73;;;11.60;99.90;;;;;;5003679;28;20201;-89
2022/09/30 07:36:07;;;;;;;13.37;12.30;;;11.60;99.90;;;;;;4990727;28;20225;-89
2022/09/30 07:38:36;;;;;;;12.10;11.20;;;11.60;99.90;;;;;;4992041;28;20657;-89
2022/09/30 07:41:11;;;;;;;12.93;11.27;;;11.70;99.90;;;;;;4989285;28;20216;-89
2022/09/30 07:43:39;;;;;;;11.63;10.70;;;11.60;99.90;;;;;;4997586;28;20200;-88
2022/09/30 07:46:22;;;;;;;12.93;11.67;;;11.80;99.90;;;;;;4997767;28;20616;-88
2022/09/30 07:48:50;;;;;;;14.00;12.60;;;11.80;99.90;;;;;;5003179;28;20206;-88
2022/09/30 07:51:20;;;;;;;13.50;12.40;;;11.90;99.90;;;;;;5004747;28;20316;-88
2022/09/30 07:53:49;;;;;;;14.07;12.60;;;12.10;99.90;;;;;;4996658;28;20214;-89
2022/09/30 07:56:15;;;;;;;13.20;12.10;;;12.10;99.90;;;;;;4995027;28;20224;-88
2022/09/30 07:58:42;;;;;;;12.47;11.37;;;12.10;99.90;;;;;;4992032;28;20197;-89
2022/09/30 08:01:08;;;;;;;12.70;11.57;;;12.20;99.90;;;;;;5001867;28;20216;-88
2022/09/30 08:03:38;;;;;;;11.07;10.17;;;12.40;99.90;;;;;;4993950;28;20236;-88
2022/09/30 08:06:13;;;;;;;11.93;10.90;;;12.50;99.90;;;;;;4998698;28;20200;-88
2022/09/30 08:08:39;;;;;;;12.07;11.07;;;12.70;99.20;;;;;;5002425;28;20199;-89
2022/09/30 08:11:05;;;;;;;11.83;10.73;;;12.70;97.50;;;;;;4994266;28;20665;-88
2022/09/30 08:13:31;;;;;;;13.67;12.27;;;12.70;96.20;;;;;;4985448;28;20736;-88
2022/09/30 08:15:58;;;;;;;13.53;12.33;;;12.80;99.10;;;;;;4996719;28;20217;-89
2022/09/30 08:18:23;;;;;;;14.07;12.87;;;12.90;98.60;;;;;;4997417;28;20953;-88
2022/09/30 08:20:49;;;;;;;13.70;12.43;;;12.90;97.60;;;;;;4995159;28;20214;-89
2022/09/30 08:23:15;;;;;;;13.70;12.50;;;13.10;97.40;;;;;;5000459;28;20193;-88
2022/09/30 08:25:41;;;;;;;12.63;11.63;;;13.30;95.20;;;;;;4998425;28;20269;-89
2022/09/30 08:28:07;;;;;;;12.43;11.43;;;13.40;93.80;;;;;;4994160;28;20193;-89
2022/09/30 08:30:37;;;;;;;12.73;11.60;;;13.50;92.70;;;;;;4993310;28;20639;-89
2022/09/30 08:33:03;;;;;;;14.53;13.00;;;13.50;93.40;;;;;;4994258;28;20230;-89
2022/09/30 08:35:29;;;;;;;12.90;11.80;;;13.40;92.30;;;;;;4998898;28;20297;-88
2022/09/30 08:37:55;;;;;;;12.50;11.30;;;13.40;92.90;;;;;;4999637;28;20192;-88
2022/09/30 08:40:27;;;;;;;12.73;11.70;;;13.20;91.70;;;;;;5006090;28;20237;-89
2022/09/30 08:42:59;;;;;;;13.13;12.00;;;13.20;92.70;;;;;;5004718;28;20186;-88
2022/09/30 08:45:47;;;;;;;12.87;11.73;;;13.40;91.90;;;;;;4989936;28;20221;-89
2022/09/30 08:48:28;;;;;;;14.23;13.03;;;13.40;92.00;;;;;;4994175;28;20207;-88
2022/09/30 08:51:06;;;;;;;15.53;14.23;;;13.50;92.10;;;;;;4994499;28;20213;-89
2022/09/30 08:53:36;;;;;;;17.80;12.83;;;13.50;91.90;;;;;;5001321;28;20238;-89
2022/09/30 08:56:03;;;;;;;14.10;12.90;;;13.30;93.70;;;;;;4999492;28;20208;-89
2022/09/30 08:58:32;;;;;;;12.57;11.57;;;13.40;94.30;;;;;;5004998;28;20186;-89
2022/09/30 09:01:22;;;;;;;12.33;11.03;;;13.40;94.00;;;;;;4995426;28;20206;-88
2022/09/30 09:03:48;;;;;;;12.27;11.27;;;13.40;94.60;;;;;;5002318;28;20187;-88
2022/09/30 09:06:29;;;;;;;12.13;11.10;;;13.30;93.70;;;;;;4997638;28;20207;-88
2022/09/30 09:09:16;;;;;;;11.90;10.80;;;13.30;94.30;;;;;;4992101;28;20211;-89
2022/09/30 09:12:09;;;;;;;12.63;11.50;;;13.20;93.90;;;;;;4999862;28;20241;-88
2022/09/30 09:14:40;;;;;;;11.70;10.70;;;13.20;93.40;;;;;;4995580;28;20213;-89
2022/09/30 09:17:41;;;;;;;11.70;10.63;;;13.30;94.70;;;;;;4998236;28;20213;-89
2022/09/30 09:20:16;;;;;;;11.50;10.40;;;13.40;94.20;;;;;;4998774;28;20213;-89
2022/09/30 09:22:44;;;;;;;10.70;9.83;;;13.40;94.90;;;;;;4990994;28;20186;-89
2022/09/30 09:25:26;;;;;;;13.23;11.97;;;13.60;94.40;;;;;;4982894;28;20223;-88
2022/09/30 09:27:58;;;;;;;11.90;11.00;;;13.60;93.00;;;;;;4994782;28;20190;-89
2022/09/30 09:30:28;;;;;;;13.03;11.93;;;13.70;93.70;;;;;;4995610;28;20273;-88
2022/09/30 09:33:00;;;;;;;13.37;12.27;;;13.80;91.60;;;;;;4985659;28;20219;-88
2022/09/30 09:35:48;;;;;;;13.37;11.87;;;13.90;91.30;;;;;;4996277;28;20229;-88
2022/09/30 09:38:25;;;;;;;13.03;11.83;;;14.10;91.20;;;;;;4994960;28;20289;-89
2022/09/30 09:41:12;;;;;;;13.27;11.87;;;14.20;88.50;;;;;;4992690;28;20213;-89
2022/09/30 09:44:01;;;;;;;12.40;11.30;;;14.00;89.30;;;;;;4994008;28;20190;-89
2022/09/30 09:46:50;;;;;;;13.03;11.93;;;14.10;89.00;;;;;;4980526;28;20212;-90
2022/09/30 09:49:19;;;;;;;11.77;10.73;;;14.10;89.80;;;;;;4995648;28;20212;-88
2022/09/30 09:52:09;;;;;;;11.20;10.30;;;14.50;89.10;;;;;;4997716;28;20346;-89
2022/09/30 09:54:40;;;;;;;11.90;10.93;;;14.80;87.60;;;;;;4975576;28;20187;-88
2022/09/30 09:57:15;;;;;;;11.93;10.77;;;14.80;86.90;;;;;;4994838;28;20227;-88
2022/09/30 10:03:25;;;;;;;12.03;10.93;;;15.60;84.80;;;;;;5008802;28;20236;-90
2022/09/30 10:06:01;;;;;;;10.87;9.80;;;15.80;81.70;;;;;;4985294;28;20495;-89
2022/09/30 10:08:30;;;;;;;13.83;12.63;;;16.20;81.50;;;;;;4995497;28;20516;-88
2022/09/30 10:10:59;;;;;;;10.83;9.93;;;16.60;79.70;;;;;;4998952;28;20298;-91
2022/09/30 10:13:29;;;;;;;12.57;11.17;;;17.00;79.90;;;;;;4995188;28;20195;-89
2022/09/30 10:16:00;;;;;;;10.20;9.40;;;17.00;77.90;;;;;;4992066;28;20210;-89
2022/09/30 10:18:31;;;;;;;11.90;10.73;;;16.80;78.30;;;;;;4984349;28;20304;-90
2022/09/30 10:21:22;;;;;;;19.97;18.17;;;16.70;77.70;;;;;;4990233;28;20204;-89
2022/09/30 10:23:48;;;;;;;11.17;10.03;;;16.30;83.10;;;;;;4997822;28;20298;-89
2022/09/30 10:26:13;;;;;;;11.73;10.63;;;16.30;82.40;;;;;;4992150;28;20198;-89
2022/09/30 10:28:59;;;;;;;11.27;10.20;;;16.20;80.60;;;;;;5001411;28;20197;-89
2022/09/30 10:31:28;;;;;;;10.47;9.53;;;16.10;82.30;;;;;;5004766;28;20208;-89
2022/09/30 10:34:18;;;;;;;10.37;9.57;;;15.90;83.10;;;;;;4994182;28;20535;-90
2022/09/30 10:36:45;;;;;;;11.40;10.20;;;15.60;84.40;;;;;;4997041;28;20213;-89
2022/09/30 10:39:25;;;;;;;11.80;10.80;;;15.40;87.00;;;;;;4990006;28;20205;-89
2022/09/30 10:42:20;;;;;;;11.77;10.57;;;15.20;87.00;;;;;;4996373;28;20189;-89
2022/09/30 10:44:57;;;;;;;11.40;9.90;;;15.50;86.00;;;;;;4992470;28;20224;-89
2022/09/30 10:47:25;;;;;;;11.30;10.27;;;15.60;84.70;;;;;;5002412;28;20187;-89
2022/09/30 10:50:16;;;;;;;12.33;11.37;;;15.80;85.10;;;;;;5015016;28;20222;-89
2022/09/30 10:52:55;;;;;;;11.30;10.20;;;15.70;84.60;;;;;;5007022;28;20245;-90
2022/09/30 10:55:21;;;;;;;11.97;10.77;;;15.70;84.20;;;;;;5008888;28;20210;-89
2022/09/30 10:57:51;;;;;;;11.80;10.70;;;15.60;85.30;;;;;;5001932;28;20844;-89
2022/09/30 11:00:24;;;;;;;11.40;10.50;;;15.50;85.00;;;;;;4997148;28;20204;-89
2022/09/30 11:03:17;;;;;;;11.60;10.50;;;15.40;88.10;;;;;;5003390;28;20193;-90
2022/09/30 11:05:45;;;;;;;11.67;10.57;;;15.40;87.50;;;;;;4975469;28;20660;-91
2022/09/30 11:08:35;;;;;;;13.30;10.47;;;15.50;85.90;;;;;;4999292;28;20196;-91
2022/09/30 11:11:23;;;;;;;12.03;10.93;;;15.80;83.70;;;;;;4990725;28;20223;-89
2022/09/30 11:14:14;;;;;;;11.02;10.00;;;16.30;82.80;;;;;;4991284;28;20205;-91
2022/09/30 11:17:05;;;;;;;11.93;10.95;;;17.10;79.60;;;;;;4993028;28;20218;-91
2022/09/30 11:19:42;;;;;;;10.85;9.85;;;17.70;74.60;;;;;;5000690;28;20233;-91
2022/09/30 11:22:52;;;;;;;10.15;9.35;;;17.40;76.80;;;;;;5001473;28;20215;-91
2022/09/30 11:25:49;;;;;;;10.65;9.73;;;17.30;73.50;;;;;;4991219;28;20199;-91
2022/09/30 11:28:41;;;;;;;12.20;11.20;;;17.40;73.00;;;;;;5003356;28;20190;-91
2022/09/30 11:31:18;;;;;;;10.25;9.30;;;17.70;75.10;;;;;;4985017;28;20213;-91
2022/09/30 11:34:23;;;;;;;10.15;9.35;;;17.70;73.20;;;;;;4991885;28;20194;-91
2022/09/30 11:37:23;;;;;;;11.07;10.07;;;18.10;70.70;;;;;;5000367;28;20212;-91
2022/09/30 11:39:58;;;;;;;10.85;9.90;;;18.20;70.30;;;;;;5002754;28;20212;-90
2022/09/30 11:42:46;;;;;;;11.77;10.63;;;18.10;70.20;;;;;;4989385;28;20212;-90
2022/09/30 11:45:39;;;;;;;10.80;9.82;;;18.40;68.60;;;;;;4988038;28;20258;-89
2022/09/30 11:48:26;;;;;;;8.90;8.30;;;18.80;67.40;;;;;;4994575;28;20209;-90
2022/09/30 11:51:20;;;;;;;9.00;8.30;;;19.10;63.20;;;;;;4993691;28;20578;-90
2022/09/30 11:54:29;;;;;;;9.30;8.50;;;19.00;64.20;;;;;;4995768;28;20537;-90
2022/09/30 11:57:17;;;;;;;9.57;8.73;;;18.80;64.20;;;;;;4995517;28;20903;-91
2022/09/30 11:59:55;;;;;;;8.77;8.07;;;19.20;64.00;;;;;;5007082;28;20286;-91
2022/09/30 12:02:25;;;;;;;9.73;7.70;;;19.20;63.40;;;;;;4996623;28;20682;-91
2022/09/30 12:04:56;;;;;;;8.27;7.57;;;19.40;59.80;;;;;;4990400;28;20217;-92
2022/09/30 12:07:39;;;;;;;9.48;8.55;;;19.50;59.40;;;;;;4992774;28;20187;-90
2022/09/30 12:10:34;;;;;;;9.55;8.75;;;19.50;62.10;;;;;;4990540;28;20206;-90
2022/09/30 12:13:13;;;;;;;8.48;7.80;;;19.10;63.20;;;;;;4997465;28;20198;-91
2022/09/30 12:15:43;;;;;;;7.95;7.20;;;19.80;58.70;;;;;;4996898;28;20276;-92
2022/09/30 12:18:15;;;;;;;8.10;7.45;;;20.20;56.30;;;;;;4991559;28;20885;-90
2022/09/30 12:20:52;;;;;;;7.63;7.03;;;20.50;56.60;;;;;;4990942;28;20776;-91
2022/09/30 12:23:23;;;;;;;8.85;8.15;;;21.00;53.40;;;;;;5010458;28;20764;-91
2022/09/30 12:25:55;;;;;;;8.35;7.75;;;21.30;54.60;;;;;;4990697;28;20201;-92
2022/09/30 12:31:54;;;;;;;7.85;7.25;;;21.80;53.90;;;;;;4984776;28;20424;-91
2022/09/30 12:34:38;;;;;;;7.97;7.25;;;21.80;51.50;;;;;;4990536;28;20210;-91
2022/09/30 12:37:13;;;;;;;7.43;6.93;;;21.80;50.00;;;;;;4997298;28;20587;-91
2022/09/30 12:40:04;;;;;;;7.68;7.07;;;22.00;51.90;;;;;;4988648;28;20209;-91
2022/09/30 12:42:57;;;;;;;7.68;7.07;;;22.10;49.40;;;;;;4988985;28;20616;-91
2022/09/30 12:45:47;;;;;;;7.82;7.07;;;22.30;49.50;;;;;;4990850;28;20986;-91
2022/09/30 12:48:17;;;;;;;7.97;7.38;;;22.50;49.20;;;;;;4992184;28;20186;-91
2022/09/30 12:50:51;;;;;;;6.85;6.35;;;21.90;50.10;;;;;;4996450;28;20245;-90
2022/09/30 12:53:23;;;;;;;6.72;6.22;;;21.80;50.00;;;;;;4998181;28;20231;-91
2022/09/30 12:55:49;;;;;;;7.22;6.55;;;21.70;50.60;;;;;;4985885;28;20224;-91
2022/09/30 12:58:29;;;;;;;7.00;6.40;;;21.30;50.80;;;;;;4988709;28;20599;-91
2022/09/30 13:01:11;;;;;;;8.52;7.18;;;21.00;51.70;;;;;;4995845;28;20303;-91
2022/09/30 13:03:58;;;;;;;7.28;6.72;;;21.50;50.90;;;;;;4996463;28;20753;-91
2022/09/30 13:06:24;;;;;;;6.65;6.05;;;21.30;51.50;;;;;;4994136;28;20238;-91
2022/09/30 13:08:56;;;;;;;6.63;6.03;;;21.90;49.90;;;;;;5010019;28;20205;-91
2022/09/30 13:11:35;;;;;;;6.88;6.22;;;22.40;48.60;;;;;;5009037;28;20247;-91
2022/09/30 13:14:12;;;;;;;6.65;6.18;;;22.90;46.40;;;;;;4988149;28;20276;-91
2022/09/30 13:17:00;;;;;;;8.23;6.30;;;23.10;47.00;;;;;;4990702;28;20205;-91
2022/09/30 13:19:46;;;;;;;6.68;6.07;;;23.50;45.10;;;;;;4985594;28;20210;-91
2022/09/30 13:22:18;;;;;;;6.50;5.78;;;23.20;44.80;;;;;;4995954;28;20186;-91